createdAt,value
2022-11-25T00:00:30.156Z,12.93
2022-11-25T00:03:02.851Z,11.25
2022-11-25T00:05:35.971Z,11.70
2022-11-25T00:08:08.834Z,10.95
2022-11-25T00:10:41.985Z,12.23
2022-11-25T00:13:15.380Z,12.23
2022-11-25T00:15:49.164Z,11.27
2022-11-25T00:18:21.880Z,11.97
2022-11-25T00:20:54.981Z,10.53
2022-11-25T00:23:33.066Z,11.83
2022-11-25T00:26:11.078Z,10.88
2022-11-25T00:28:46.418Z,10.82
2022-11-25T00:31:23.565Z,11.03
2022-11-25T00:33:57.004Z,11.75
2022-11-25T00:36:36.113Z,11.05
2022-11-25T00:39:16.091Z,12.25
2022-11-25T00:42:07.303Z,12.23
2022-11-25T00:44:41.071Z,11.35
2022-11-25T00:47:22.290Z,12.43
2022-11-25T00:49:56.535Z,11.90
2022-11-25T00:52:29.720Z,11.70
2022-11-25T00:55:02.540Z,10.90
2022-11-25T00:57:36.017Z,10.77
2022-11-25T01:00:12.455Z,10.13
2022-11-25T01:02:46.123Z,10.65
2022-11-25T01:05:19.041Z,10.25
2022-11-25T01:07:53.161Z,11.75
2022-11-25T01:10:26.150Z,12.00
2022-11-25T01:12:58.819Z,11.48
2022-11-25T01:15:31.498Z,10.08
2022-11-25T01:20:37.814Z,10.60
2022-11-25T01:23:10.832Z,9.58
2022-11-25T01:25:43.752Z,9.55
2022-11-25T01:28:16.881Z,9.35
2022-11-25T01:30:51.266Z,10.60
2022-11-25T01:33:25.659Z,9.88
2022-11-25T01:35:58.566Z,9.63
2022-11-25T01:38:32.079Z,9.70
2022-11-25T01:41:05.997Z,9.35
2022-11-25T01:46:27.181Z,9.05
2022-11-25T01:49:02.982Z,9.63
2022-11-25T01:51:43.714Z,8.98
2022-11-25T01:54:20.244Z,9.00
2022-11-25T01:57:00.761Z,8.25
2022-11-25T01:59:36.772Z,9.00
2022-11-25T02:02:11.279Z,9.20
2022-11-25T02:04:46.186Z,8.65
2022-11-25T02:07:39.620Z,8.78
2022-11-25T02:10:17.628Z,8.90
2022-11-25T02:12:50.742Z,9.60
2022-11-25T02:15:25.661Z,8.83
2022-11-25T02:17:58.747Z,8.05
2022-11-25T02:20:32.203Z,8.93
2022-11-25T02:23:28.384Z,9.23
2022-11-25T02:26:03.278Z,8.30
2022-11-25T02:28:37.700Z,7.87
2022-11-25T02:31:11.304Z,9.05
2022-11-25T02:33:44.713Z,9.90
2022-11-25T02:36:20.328Z,9.80
2022-11-25T02:39:04.382Z,9.30
2022-11-25T02:41:43.299Z,10.70
2022-11-25T02:44:16.465Z,9.03
2022-11-25T02:46:49.375Z,9.13
2022-11-25T02:49:23.905Z,8.63
2022-11-25T02:51:57.091Z,8.28
2022-11-25T02:54:29.925Z,8.60
2022-11-25T02:57:05.068Z,8.65
2022-11-25T02:59:40.024Z,8.05
2022-11-25T03:02:12.814Z,8.40
2022-11-25T03:04:45.986Z,8.53
2022-11-25T03:07:19.350Z,11.97
2022-11-25T03:09:52.247Z,9.18
2022-11-25T03:12:25.771Z,9.23
2022-11-25T03:15:02.202Z,9.35
2022-11-25T03:17:35.362Z,9.40
2022-11-25T03:20:10.382Z,10.15
2022-11-25T03:22:44.582Z,11.20
2022-11-25T03:25:18.896Z,9.93
2022-11-25T03:27:53.682Z,11.18
2022-11-25T03:30:28.702Z,13.13
2022-11-25T03:33:03.334Z,9.88
2022-11-25T03:35:37.249Z,10.10
2022-11-25T03:38:10.128Z,9.55
2022-11-25T03:40:42.865Z,9.43
2022-11-25T03:43:15.761Z,9.33
2022-11-25T03:45:50.812Z,9.85
2022-11-25T03:48:23.696Z,10.18
2022-11-25T03:50:56.588Z,10.65
2022-11-25T03:53:30.209Z,8.88
2022-11-25T03:58:36.369Z,12.15
2022-11-25T04:01:09.765Z,11.57
2022-11-25T04:03:43.290Z,12.85
2022-11-25T04:06:16.416Z,11.68
2022-11-25T04:08:49.567Z,13.55
2022-11-25T04:11:24.792Z,13.15
2022-11-25T04:13:57.809Z,12.13
2022-11-25T04:16:30.847Z,12.15
2022-11-25T04:19:04.135Z,9.83
2022-11-25T04:21:37.968Z,9.18
2022-11-25T04:24:11.032Z,9.93
2022-11-25T04:26:44.044Z,10.43
2022-11-25T04:29:17.470Z,10.50
2022-11-25T04:31:50.506Z,10.32
2022-11-25T04:34:23.750Z,10.28
2022-11-25T04:36:57.660Z,9.65
2022-11-25T04:39:30.954Z,9.60
2022-11-25T04:42:22.984Z,11.15
2022-11-25T04:45:21.046Z,11.78
2022-11-25T04:47:32.228Z,11.48
2022-11-25T04:50:08.910Z,11.10
2022-11-25T04:52:44.306Z,12.33
2022-11-25T04:55:17.890Z,10.15
2022-11-25T04:57:50.826Z,11.95
2022-11-25T05:00:25.939Z,14.63
2022-11-25T05:02:59.196Z,14.95
2022-11-25T05:05:33.388Z,14.40
2022-11-25T05:08:06.973Z,14.57
2022-11-25T05:10:40.211Z,18.57
2022-11-25T05:13:13.450Z,12.80
2022-11-25T05:15:46.241Z,10.50
2022-11-25T05:18:20.391Z,11.93
2022-11-25T05:20:54.716Z,11.50
2022-11-25T05:23:28.072Z,14.23
2022-11-25T05:28:37.848Z,13.28
2022-11-25T05:31:11.053Z,9.23
2022-11-25T05:33:44.268Z,9.03
2022-11-25T05:36:17.587Z,8.95
2022-11-25T05:38:51.979Z,8.20
2022-11-25T05:41:26.496Z,9.33
2022-11-25T05:43:59.632Z,9.93
2022-11-25T05:46:33.999Z,12.93
2022-11-25T05:49:07.729Z,11.83
2022-11-25T05:51:41.377Z,11.83
2022-11-25T05:54:14.489Z,11.88
2022-11-25T05:56:47.309Z,13.58
2022-11-25T05:59:31.223Z,12.85
2022-11-25T06:02:08.878Z,12.47
2022-11-25T06:04:42.594Z,13.03
2022-11-25T06:07:15.863Z,18.70
2022-11-25T06:09:49.263Z,15.95
2022-11-25T06:12:24.451Z,16.25
2022-11-25T06:14:57.841Z,14.83
2022-11-25T06:17:33.663Z,15.30
2022-11-25T06:20:17.689Z,15.53
2022-11-25T06:22:50.915Z,16.17
2022-11-25T06:25:26.614Z,13.72
2022-11-25T06:28:15.488Z,15.28
2022-11-25T06:30:35.642Z,15.93
2022-11-25T06:33:16.069Z,15.93
2022-11-25T06:35:50.451Z,14.23
2022-11-25T06:38:23.245Z,16.12
2022-11-25T06:41:00.401Z,12.07
2022-11-25T06:43:33.802Z,12.28
2022-11-25T06:48:44.234Z,12.93
2022-11-25T06:51:19.474Z,11.60
2022-11-25T06:53:54.155Z,12.40
2022-11-25T06:56:29.569Z,11.97
2022-11-25T06:59:03.092Z,12.73
2022-11-25T07:01:36.245Z,11.80
2022-11-25T07:04:09.957Z,11.45
2022-11-25T07:06:43.050Z,11.38
2022-11-25T07:09:16.014Z,16.00
2022-11-25T07:11:49.355Z,14.95
2022-11-25T07:14:23.070Z,15.48
2022-11-25T07:16:56.563Z,14.13
2022-11-25T07:19:31.150Z,14.35
2022-11-25T07:22:04.612Z,13.18
2022-11-25T07:24:38.531Z,14.23
2022-11-25T07:27:12.073Z,14.47
2022-11-25T07:30:18.809Z,14.20
2022-11-25T07:32:20.203Z,15.93
2022-11-25T07:34:53.374Z,15.05
2022-11-25T07:37:27.974Z,15.80
2022-11-25T07:40:01.112Z,14.07
2022-11-25T07:42:34.316Z,13.30
2022-11-25T08:44:15.100Z,16.52
2022-11-25T08:46:48.909Z,15.75
2022-11-25T08:49:22.826Z,12.68
2022-11-25T08:51:55.883Z,15.72
2022-11-25T08:54:31.024Z,20.17
2022-11-25T08:57:04.053Z,16.23
2022-11-25T08:59:37.903Z,14.07
2022-11-25T09:02:13.772Z,12.55
2022-11-25T09:04:46.754Z,13.78
2022-11-25T09:07:20.142Z,12.68
2022-11-25T09:09:53.138Z,12.75
2022-11-25T09:12:26.446Z,10.80
2022-11-25T09:14:59.435Z,10.72
2022-11-25T09:17:34.627Z,9.57
2022-11-25T09:20:08.906Z,11.38
2022-11-25T09:22:42.386Z,10.10
2022-11-25T09:25:15.705Z,12.23
2022-11-25T09:27:48.673Z,8.75
2022-11-25T09:30:21.889Z,10.23
2022-11-25T09:32:57.211Z,9.23
2022-11-25T09:35:47.400Z,8.65
2022-11-25T09:38:20.873Z,10.65
2022-11-25T09:41:05.423Z,12.53
2022-11-25T09:44:22.270Z,10.50
2022-11-25T09:47:13.478Z,10.30
2022-11-25T09:49:59.235Z,10.05
2022-11-25T09:53:06.616Z,9.23
2022-11-25T09:55:46.514Z,8.98
2022-11-25T09:58:26.511Z,10.68
2022-11-25T10:01:00.165Z,16.27
2022-11-25T10:03:49.604Z,13.88
2022-11-25T10:06:30.810Z,17.40
2022-11-25T10:09:08.438Z,12.15
2022-11-25T10:11:49.112Z,16.20
2022-11-25T10:14:52.398Z,12.70
2022-11-25T10:17:51.068Z,15.83
2022-11-25T10:20:40.069Z,17.82
2022-11-25T10:23:36.731Z,16.93
2022-11-25T10:26:18.841Z,14.23
2022-11-25T10:29:02.185Z,12.98
2022-11-25T10:31:37.758Z,13.40
2022-11-25T10:34:46.028Z,13.05
2022-11-25T10:37:29.834Z,15.23
2022-11-25T10:40:02.919Z,16.15
2022-11-25T10:42:37.429Z,15.68
2022-11-25T10:45:11.823Z,15.63
2022-11-25T10:47:57.216Z,15.83
2022-11-25T10:50:59.361Z,23.60
2022-11-25T10:53:32.156Z,18.60
2022-11-25T10:56:14.973Z,19.50
2022-11-25T10:58:48.487Z,19.67
2022-11-25T11:01:28.423Z,19.57
2022-11-25T11:04:15.316Z,20.72
2022-11-25T11:06:51.582Z,18.17
2022-11-25T11:09:42.327Z,19.37
2022-11-25T11:12:30.137Z,18.87
2022-11-25T11:15:24.943Z,19.25
2022-11-25T11:18:01.041Z,19.85
2022-11-25T11:20:34.499Z,19.40
2022-11-25T11:23:14.324Z,19.25
2022-11-25T11:26:06.377Z,17.92
2022-11-25T11:28:42.403Z,18.75
2022-11-25T11:31:25.352Z,16.93
2022-11-25T11:34:05.419Z,19.42
2022-11-25T11:36:45.927Z,20.08
2022-11-25T11:40:01.261Z,20.90
2022-11-25T11:43:26.531Z,20.97
2022-11-25T11:46:40.443Z,22.30
2022-11-25T11:49:30.817Z,21.07
2022-11-25T11:52:17.653Z,22.70
2022-11-25T11:55:04.359Z,21.82
2022-11-25T11:57:48.050Z,20.15
2022-11-25T12:00:22.316Z,24.90
2022-11-25T12:03:20.562Z,24.00
2022-11-25T12:05:55.149Z,22.42
2022-11-25T12:08:50.799Z,19.37
2022-11-25T12:11:28.676Z,18.00
2022-11-25T12:14:12.688Z,19.90
2022-11-25T12:16:56.184Z,21.17
2022-11-25T12:19:34.040Z,20.12
2022-11-25T12:22:11.206Z,19.87
2022-11-25T12:24:54.487Z,19.50
2022-11-25T12:27:34.922Z,19.35
2022-11-25T12:30:22.684Z,19.23
2022-11-25T12:33:08.741Z,29.00
2022-11-25T12:36:07.210Z,48.60
2022-11-25T12:38:58.305Z,30.57
2022-11-25T12:42:06.010Z,25.97
2022-11-25T12:44:59.788Z,16.67
2022-11-25T12:47:33.052Z,21.27
2022-11-25T12:50:06.153Z,20.10
2022-11-25T12:53:00.052Z,22.93
2022-11-25T12:55:33.633Z,23.00
2022-11-25T12:58:42.572Z,18.75
2022-11-25T13:01:44.489Z,17.95
2022-11-25T13:05:39.110Z,18.17
2022-11-25T13:08:07.839Z,18.48
2022-11-25T13:10:57.295Z,17.42
2022-11-25T13:13:50.371Z,18.40
2022-11-25T13:16:25.219Z,16.42
2022-11-25T13:18:58.946Z,15.93
2022-11-25T13:21:31.894Z,14.85
2022-11-25T13:24:05.047Z,14.15
2022-11-25T13:26:41.656Z,14.38
2022-11-25T13:29:22.061Z,15.43
2022-11-25T13:32:27.946Z,16.27
2022-11-25T13:35:25.337Z,14.65
2022-11-25T13:37:58.205Z,13.30
2022-11-25T13:40:35.826Z,12.68
2022-11-25T13:43:18.731Z,15.88
2022-11-25T13:45:47.657Z,17.82
2022-11-25T13:48:28.571Z,17.75
2022-11-25T13:51:23.074Z,19.75
2022-11-25T13:54:02.655Z,18.00
2022-11-25T13:56:37.907Z,17.02
2022-11-25T13:59:18.090Z,14.70
2022-11-25T14:01:55.143Z,16.32
2022-11-25T14:04:44.990Z,16.97
2022-11-25T14:08:08.452Z,15.70
2022-11-25T14:10:57.226Z,16.23
2022-11-25T14:13:46.664Z,15.35
2022-11-25T14:16:52.604Z,14.60
2022-11-25T14:19:53.002Z,16.00
2022-11-25T14:22:43.163Z,13.98
2022-11-25T14:25:30.639Z,13.35
2022-11-25T14:28:15.316Z,18.82
2022-11-25T14:30:53.776Z,19.07
2022-11-25T14:33:31.745Z,17.65
2022-11-25T14:36:10.924Z,19.45
2022-11-25T14:39:04.942Z,16.35
2022-11-25T14:41:58.020Z,15.63
2022-11-25T14:44:36.090Z,15.68
2022-11-25T14:47:08.992Z,16.97
2022-11-25T14:50:00.185Z,16.43
2022-11-25T14:52:36.318Z,14.90
2022-11-25T14:55:11.828Z,15.08
2022-11-25T14:57:46.172Z,14.93
2022-11-25T15:00:20.061Z,15.55
2022-11-25T15:03:00.548Z,17.27
2022-11-25T15:05:41.261Z,18.10
2022-11-25T15:08:18.608Z,17.87
2022-11-25T15:11:03.038Z,13.62
2022-11-25T15:13:45.883Z,14.43
2022-11-25T15:16:35.568Z,14.68
2022-11-25T15:19:20.721Z,14.55
2022-11-25T15:22:22.472Z,13.30
2022-11-25T15:24:51.586Z,14.15
2022-11-25T15:27:29.543Z,14.55
2022-11-25T15:30:02.651Z,15.90
2022-11-25T15:32:38.355Z,13.98
2022-11-25T15:35:18.907Z,13.38
2022-11-25T15:37:53.551Z,19.00
2022-11-25T15:40:43.900Z,20.23
2022-11-25T15:43:26.708Z,18.48
2022-11-25T15:46:07.028Z,18.48
2022-11-25T15:48:46.522Z,17.73
2022-11-25T15:51:34.995Z,15.93
2022-11-25T15:54:18.736Z,16.25
2022-11-25T15:56:56.417Z,15.43
2022-11-25T16:00:01.278Z,14.83
2022-11-25T16:02:41.263Z,15.65
2022-11-25T16:05:32.277Z,13.68
2022-11-25T16:08:18.178Z,12.88
2022-11-25T16:10:57.068Z,13.18
2022-11-25T16:13:31.979Z,13.98
2022-11-25T16:16:15.025Z,15.00
2022-11-25T16:19:09.100Z,14.90
2022-11-25T16:21:56.581Z,17.50
2022-11-25T16:25:01.801Z,13.75
2022-11-25T16:27:31.636Z,14.25
2022-11-25T16:30:12.174Z,15.00
2022-11-25T16:32:45.005Z,14.80
2022-11-25T16:35:22.417Z,14.30
2022-11-25T16:37:58.923Z,13.72
2022-11-25T16:40:31.681Z,12.25
2022-11-25T16:43:04.530Z,13.98
2022-11-25T16:45:37.541Z,13.90
2022-11-25T16:48:19.697Z,13.20
2022-11-25T16:50:54.155Z,14.00
2022-11-25T16:55:58.692Z,15.40
2022-11-25T16:58:31.667Z,14.43
2022-11-25T17:01:04.476Z,14.63
2022-11-25T17:03:37.715Z,14.53
2022-11-25T17:06:22.154Z,14.25
2022-11-25T17:08:54.919Z,15.53
2022-11-25T17:11:34.602Z,16.20
2022-11-25T17:14:11.523Z,14.15
2022-11-25T17:16:44.932Z,15.45
2022-11-25T17:19:19.321Z,15.35
2022-11-25T17:21:52.351Z,18.30
2022-11-25T17:24:27.366Z,15.25
2022-11-25T17:27:03.701Z,14.85
2022-11-25T17:29:44.573Z,14.85
2022-11-25T17:32:18.161Z,15.90
2022-11-25T17:34:50.990Z,14.70
2022-11-25T17:37:25.870Z,15.93
2022-11-25T17:39:58.465Z,15.75
2022-11-25T17:42:33.223Z,15.10
2022-11-25T17:45:12.744Z,16.67
2022-11-25T17:47:46.615Z,12.82
2022-11-25T17:50:25.879Z,14.00
2022-11-25T17:52:58.521Z,16.57
2022-11-25T17:55:32.452Z,17.17
2022-11-25T17:58:06.481Z,16.15
2022-11-25T18:00:39.949Z,14.45
2022-11-25T18:03:14.968Z,14.28
2022-11-25T18:05:48.311Z,15.13
2022-11-25T18:08:21.620Z,14.65
2022-11-25T18:10:55.168Z,17.98
2022-11-25T18:13:28.284Z,15.75
2022-11-25T18:16:02.819Z,14.25
2022-11-25T18:18:36.083Z,13.93
2022-11-25T18:21:10.117Z,13.53
2022-11-25T18:23:43.992Z,14.18
2022-11-25T18:26:17.549Z,13.05
2022-11-25T18:28:51.153Z,17.23
2022-11-25T18:31:24.229Z,16.67
2022-11-25T18:33:56.884Z,17.90
2022-11-25T18:36:29.591Z,16.57
2022-11-25T18:39:02.416Z,14.93
2022-11-25T18:41:35.248Z,14.55
2022-11-25T18:44:11.010Z,14.18
2022-11-25T18:46:44.079Z,17.27
2022-11-25T18:49:17.606Z,17.37
2022-11-25T18:51:50.681Z,16.13
2022-11-25T18:56:56.385Z,16.35
2022-11-25T18:59:33.412Z,15.98
2022-11-25T19:02:12.126Z,17.00
2022-11-25T19:04:45.391Z,17.87
2022-11-25T19:07:18.121Z,18.75
2022-11-25T19:09:50.742Z,16.45
2022-11-25T19:12:23.752Z,16.17
2022-11-25T19:14:57.541Z,16.30
2022-11-25T19:17:30.242Z,16.05
2022-11-25T19:20:02.936Z,15.78
2022-11-25T19:22:35.913Z,15.98
2022-11-25T19:25:10.508Z,14.95
2022-11-25T19:27:53.725Z,20.90
2022-11-25T19:30:30.082Z,20.97
2022-11-25T19:33:04.374Z,17.92
2022-11-25T19:35:40.614Z,16.67
2022-11-25T19:38:24.012Z,16.02
2022-11-25T19:40:58.914Z,15.83
2022-11-25T19:43:31.973Z,16.85
2022-11-25T19:46:04.964Z,14.40
2022-11-25T19:48:39.852Z,14.28
2022-11-25T19:51:12.651Z,18.10
2022-11-25T19:53:45.702Z,16.00
2022-11-25T19:56:24.364Z,17.85
2022-11-25T19:58:58.153Z,19.40
2022-11-25T20:01:34.026Z,17.60
2022-11-25T20:04:07.551Z,15.68
2022-11-25T20:06:40.829Z,15.15
2022-11-25T20:09:14.709Z,15.87
2022-11-25T20:11:47.820Z,17.27
2022-11-25T20:14:21.784Z,15.80
2022-11-25T20:16:54.553Z,17.55
2022-11-25T20:19:27.259Z,19.15
2022-11-25T20:21:59.930Z,21.50
2022-11-25T20:24:33.101Z,17.02
2022-11-25T20:27:06.519Z,15.90
2022-11-25T20:29:39.434Z,15.65
2022-11-25T20:32:34.413Z,15.68
2022-11-25T20:37:41.404Z,15.50
2022-11-25T20:40:20.495Z,15.93
2022-11-25T20:42:53.790Z,15.65
2022-11-25T20:45:26.612Z,15.87
2022-11-25T20:47:59.426Z,15.55
2022-11-25T20:50:32.662Z,14.80
2022-11-25T20:53:05.602Z,16.32
2022-11-25T20:55:38.667Z,16.02
2022-11-25T20:58:34.759Z,16.27
2022-11-25T21:01:07.808Z,17.37
2022-11-25T21:03:40.770Z,16.27
2022-11-25T21:06:32.697Z,15.72
2022-11-25T21:09:06.038Z,14.73
2022-11-25T21:11:38.706Z,15.50
2022-11-25T21:14:15.570Z,13.62
2022-11-25T21:16:49.276Z,13.48
2022-11-25T21:19:21.942Z,13.80
2022-11-25T21:21:54.698Z,15.88
2022-11-25T21:24:40.413Z,18.23
2022-11-25T21:27:19.550Z,16.75
2022-11-25T21:29:54.284Z,15.03
2022-11-25T21:32:29.062Z,15.20
2022-11-25T21:35:03.486Z,14.07
2022-11-25T21:37:37.516Z,14.53
2022-11-25T21:40:29.830Z,14.40
2022-11-25T21:43:06.714Z,12.10
2022-11-25T21:45:39.876Z,12.65
2022-11-25T21:48:25.199Z,13.48
2022-11-25T21:50:59.168Z,14.20
2022-11-25T21:53:37.022Z,16.45
2022-11-25T21:58:40.524Z,15.65
2022-11-25T22:01:13.550Z,13.65
2022-11-25T22:03:46.171Z,12.88
2022-11-25T22:06:25.136Z,12.45
2022-11-25T22:08:58.717Z,12.00
2022-11-25T22:11:34.599Z,13.13
2022-11-25T22:14:17.718Z,12.25
2022-11-25T22:16:50.628Z,10.90
2022-11-25T22:19:26.292Z,12.68
2022-11-25T22:21:59.493Z,12.82
2022-11-25T22:24:34.201Z,12.53
2022-11-25T22:27:11.091Z,11.25
2022-11-25T22:29:44.035Z,10.53
2022-11-25T22:32:18.588Z,12.25
2022-11-25T22:37:25.533Z,11.50
2022-11-25T22:39:58.087Z,9.58
2022-11-25T22:42:32.857Z,10.30
2022-11-25T22:45:11.052Z,12.47
2022-11-25T22:47:46.048Z,12.10
2022-11-25T22:50:28.042Z,11.60
2022-11-25T22:53:02.379Z,10.95
2022-11-25T22:55:35.630Z,11.50
2022-11-25T22:58:08.332Z,10.93
2022-11-25T23:00:47.324Z,9.40
2022-11-25T23:03:30.473Z,11.05
2022-11-25T23:06:03.982Z,10.25
2022-11-25T23:08:37.243Z,9.68
2022-11-25T23:11:14.659Z,9.50
2022-11-25T23:13:48.988Z,11.08
2022-11-25T23:18:53.893Z,11.33
2022-11-25T23:21:30.466Z,10.45
2022-11-25T23:24:03.284Z,10.13
2022-11-25T23:26:36.245Z,9.30
2022-11-25T23:29:09.381Z,9.75
2022-11-25T23:31:42.572Z,9.50
2022-11-25T23:34:15.325Z,9.63
2022-11-25T23:36:49.950Z,10.30
2022-11-25T23:39:25.246Z,9.05
2022-11-25T23:41:58.107Z,9.33
2022-11-25T23:44:32.931Z,10.88
2022-11-25T23:47:06.911Z,11.68
2022-11-25T23:49:44.627Z,12.40
2022-11-25T23:52:24.101Z,10.98
2022-11-25T23:54:57.691Z,10.48
2022-11-25T23:57:33.842Z,10.13
